Time;durP1;ratioP1;P1;durP2;ratioP2;P2;SDS_P1;SDS_P2;PMS_P1;PMS_P2;Temp;Humidity;BMP_temperature;BMP_pressure;BME280_temperature;BME280_humidity;BME280_pressure;Samples;Min_cycle;Max_cycle;Signal;HPM_P1;HPM_P2
2022/08/29 00:02:20;;;;;;;5.47;3.52;;;;;;;20.73;70.87;101120.21;1696799;84;21842;-86
2022/08/29 00:04:46;;;;;;;5.15;3.47;;;;;;;20.67;70.57;101114.94;1690688;84;21059;-86
2022/08/29 00:07:14;;;;;;;5.87;4.00;;;;;;;20.64;70.78;101118.97;1688256;84;20997;-87
2022/08/29 00:09:40;;;;;;;7.97;4.17;;;;;;;20.61;70.96;101112.31;1693876;84;21474;-87
2022/08/29 00:12:07;;;;;;;9.30;3.67;;;;;;;20.57;71.04;101106.98;1688623;84;21030;-88
2022/08/29 00:14:34;;;;;;;5.67;4.03;;;;;;;20.53;71.12;101094.55;1694536;84;21172;-88
2022/08/29 00:17:01;;;;;;;7.90;3.40;;;;;;;20.48;71.22;101090.16;1697837;83;20975;-88
2022/08/29 00:19:31;;;;;;;4.33;3.50;;;;;;;20.41;71.38;101087.98;1708068;83;21447;-87
2022/08/29 00:21:57;;;;;;;5.33;3.58;;;;;;;20.36;71.53;101085.36;1696374;83;21480;-87
2022/08/29 00:24:24;;;;;;;8.40;3.95;;;;;;;20.29;71.73;101085.41;1718611;83;20998;-87
2022/08/29 00:26:51;;;;;;;5.75;3.98;;;;;;;20.13;71.92;101060.17;1701521;83;21737;-88
2022/08/29 00:29:18;;;;;;;5.47;4.25;;;;;;;20.10;71.97;101077.59;1689612;84;21014;-87
2022/08/29 00:31:45;;;;;;;7.75;3.83;;;;;;;20.07;72.09;101082.08;1687152;83;20968;-87
2022/08/29 00:34:11;;;;;;;10.60;4.30;;;;;;;20.00;72.33;101074.09;1709733;83;21008;-87
2022/08/29 00:36:38;;;;;;;11.15;4.60;;;;;;;19.97;72.56;101067.88;1689405;84;21042;-87
2022/08/29 00:39:05;;;;;;;9.73;4.20;;;;;;;19.94;72.75;101067.94;1711513;83;21740;-87
2022/08/29 00:41:32;;;;;;;8.08;4.33;;;;;;;19.92;72.97;101067.94;1694149;84;20991;-87
2022/08/29 00:43:58;;;;;;;6.28;4.37;;;;;;;19.90;73.10;101064.40;1689358;84;21011;-87
2022/08/29 00:46:45;;;;;;;8.75;4.70;;;;;;;19.88;73.23;101066.66;1694125;84;21015;-87
2022/08/29 00:49:27;;;;;;;8.28;3.90;;;;;;;19.87;73.40;101061.74;1693906;84;21039;-87
2022/08/29 00:51:53;;;;;;;9.90;4.55;;;;;;;19.86;73.61;101064.42;1694359;84;21773;-87
2022/08/29 00:54:21;;;;;;;8.33;3.92;;;;;;;19.88;73.81;101062.19;1713769;83;21389;-87
2022/08/29 00:56:48;;;;;;;6.22;4.00;;;;;;;19.86;73.84;101055.98;1705919;83;21505;-87
2022/08/29 00:59:18;;;;;;;8.33;4.60;;;;;;;19.85;73.89;101062.20;1679512;84;21533;-87
2022/08/29 01:01:44;;;;;;;7.25;4.80;;;;;;;19.81;74.01;101058.67;1656260;85;21545;-87
2022/08/29 01:04:11;;;;;;;6.67;4.17;;;;;;;19.76;74.12;101055.17;1681547;85;22541;-87
2022/08/29 01:06:39;;;;;;;7.83;4.60;;;;;;;19.76;74.25;101053.84;1654945;84;21597;-86
2022/08/29 01:09:06;;;;;;;6.30;4.20;;;;;;;19.75;74.28;101050.72;1668158;85;21007;-87
2022/08/29 01:14:20;;;;;;;8.75;4.45;;;;;;;19.74;74.47;101039.58;1662726;84;21027;-87
2022/08/29 01:16:46;;;;;;;9.95;4.53;;;;;;;19.72;74.56;101038.71;1660273;85;21808;-87
2022/08/29 01:19:45;;;;;;;11.75;4.78;;;;;;;19.69;74.59;101035.14;1663157;85;21006;-87
2022/08/29 01:22:52;;;;;;;12.47;4.17;;;;;;;19.63;74.61;101037.41;1630432;86;21011;-87
2022/08/29 01:25:24;;;;;;;7.33;4.20;;;;;;;19.60;74.76;101033.00;1601790;88;21243;-87
2022/08/29 01:27:56;;;;;;;7.28;4.42;;;;;;;19.58;74.86;101035.25;1601059;86;21068;-87
2022/08/29 01:30:23;;;;;;;9.15;4.25;;;;;;;19.53;74.87;101029.05;1650490;86;21777;-87
2022/08/29 01:32:49;;;;;;;6.12;4.03;;;;;;;19.51;74.97;101029.52;1650793;86;21035;-87
2022/08/29 01:35:16;;;;;;;10.38;4.20;;;;;;;19.47;74.96;101028.65;1650823;86;21094;-86
2022/08/29 01:37:43;;;;;;;10.58;4.35;;;;;;;19.41;75.02;101024.23;1650825;86;21397;-87
2022/08/29 01:40:11;;;;;;;9.93;3.75;;;;;;;19.36;75.17;101024.71;1657329;86;21066;-87
2022/08/29 01:42:38;;;;;;;6.53;3.80;;;;;;;19.32;75.29;101025.63;1603261;88;21211;-87
2022/08/29 01:45:06;;;;;;;13.25;4.80;;;;;;;19.29;75.34;101026.98;1609477;88;21050;-87
2022/08/29 01:47:34;;;;;;;9.25;4.25;;;;;;;19.28;75.46;101015.88;1614070;88;21041;-87
2022/08/29 01:50:03;;;;;;;8.68;3.95;;;;;;;19.26;75.41;101016.34;1593525;88;21387;-88
2022/08/29 01:52:31;;;;;;;11.08;4.50;;;;;;;19.25;75.46;101015.89;1627120;87;21959;-88
2022/08/29 01:54:58;;;;;;;10.35;4.40;;;;;;;19.22;75.53;101011.93;1625092;88;21775;-87
2022/08/29 01:57:25;;;;;;;13.95;4.78;;;;;;;19.20;75.53;101011.94;1625254;88;21027;-88
2022/08/29 01:59:52;;;;;;;7.85;4.00;;;;;;;19.18;75.58;101015.06;1660611;83;21054;-87
2022/08/29 02:02:26;;;;;;;12.93;4.75;;;;;;;19.17;75.69;101021.73;1676028;83;21530;-87
2022/08/29 02:04:56;;;;;;;8.65;4.37;;;;;;;19.13;75.68;101016.87;1682319;84;21095;-87
2022/08/29 02:07:23;;;;;;;9.50;4.58;;;;;;;19.13;75.75;101027.99;1682498;85;21931;-87
2022/08/29 02:09:50;;;;;;;10.68;3.92;;;;;;;19.12;75.78;101028.41;1672414;85;21537;-87
2022/08/29 02:12:17;;;;;;;9.98;4.28;;;;;;;19.10;75.80;101027.55;1680279;83;21011;-87
2022/08/29 02:14:44;;;;;;;13.10;5.05;;;;;;;19.12;75.86;101032.88;1674325;85;20988;-87
2022/08/29 02:17:10;;;;;;;10.70;4.45;;;;;;;19.13;75.88;101036.00;1678651;83;21004;-86
2022/08/29 02:19:38;;;;;;;8.68;4.62;;;;;;;19.13;75.81;101035.55;1681979;85;21709;-87
2022/08/29 02:22:05;;;;;;;16.35;4.35;;;;;;;19.11;75.81;101039.12;1683245;84;21459;-87
2022/08/29 02:24:32;;;;;;;16.10;4.28;;;;;;;19.11;75.83;101043.13;1660566;85;20961;-88
2022/08/29 02:26:59;;;;;;;7.42;4.50;;;;;;;19.10;75.81;101044.88;1672271;85;21512;-87
2022/08/29 02:29:26;;;;;;;14.23;4.83;;;;;;;19.10;75.89;101046.22;1683292;85;20996;-87
2022/08/29 02:31:59;;;;;;;8.65;4.03;;;;;;;19.12;75.84;101052.44;1683703;85;21753;-87
2022/08/29 02:34:27;;;;;;;11.95;4.60;;;;;;;19.12;75.83;101057.77;1676561;83;21043;-87
2022/08/29 02:36:54;;;;;;;9.03;4.97;;;;;;;19.12;75.81;101060.89;1674232;85;21032;-88
2022/08/29 02:39:20;;;;;;;12.95;4.22;;;;;;;19.14;75.84;101063.10;1683598;84;21364;-87
2022/08/29 02:41:47;;;;;;;11.30;4.35;;;;;;;19.16;75.79;101072.89;1683411;85;20984;-87
2022/08/29 02:44:14;;;;;;;11.22;4.08;;;;;;;19.16;75.79;101079.56;1684436;84;21730;-86
2022/08/29 02:46:41;;;;;;;9.78;4.62;;;;;;;19.17;75.63;101075.98;1682107;84;20974;-86
2022/08/29 02:49:08;;;;;;;12.55;4.22;;;;;;;19.17;75.68;101081.78;1684035;85;21044;-87
2022/08/29 02:51:35;;;;;;;9.93;4.10;;;;;;;19.18;75.64;101078.20;1683797;85;21564;-87
2022/08/29 02:54:01;;;;;;;13.75;4.65;;;;;;;19.21;75.69;101081.73;1683653;84;21026;-88
2022/08/29 02:56:29;;;;;;;10.75;4.00;;;;;;;19.24;75.65;101084.86;1682254;85;21770;-87
2022/08/29 02:58:56;;;;;;;9.68;3.80;;;;;;;19.26;75.60;101076.39;1677573;83;21048;-87
2022/08/29 03:01:23;;;;;;;10.08;4.30;;;;;;;19.27;75.62;101079.48;1682853;84;21019;-87
2022/08/29 03:03:50;;;;;;;9.73;4.85;;;;;;;19.27;75.52;101075.94;1679934;84;21012;-87
2022/08/29 03:06:18;;;;;;;10.15;4.15;;;;;;;19.28;75.51;101077.27;1669877;85;21071;-87
2022/08/29 03:08:45;;;;;;;10.40;4.50;;;;;;;19.29;75.47;101075.48;1685860;83;21808;-87
2022/08/29 03:11:12;;;;;;;9.75;4.37;;;;;;;19.30;75.47;101079.48;1656707;84;21048;-87
2022/08/29 03:13:39;;;;;;;9.50;4.30;;;;;;;19.32;75.43;101074.14;1700536;83;21024;-87
2022/08/29 03:16:07;;;;;;;10.90;4.08;;;;;;;19.34;75.25;101075.02;1684045;84;20996;-87
2022/08/29 03:18:33;;;;;;;12.20;5.05;;;;;;;19.33;75.20;101074.55;1684315;84;21050;-87
2022/08/29 03:21:00;;;;;;;8.48;4.12;;;;;;;19.35;75.24;101078.10;1702486;83;21753;-87
2022/08/29 03:23:27;;;;;;;9.28;3.95;;;;;;;19.36;75.29;101082.10;1685899;83;21036;-86
2022/08/29 03:25:54;;;;;;;10.70;5.40;;;;;;;19.39;75.24;101073.21;1685423;84;21106;-87
2022/08/29 03:28:21;;;;;;;9.65;4.67;;;;;;;19.42;75.22;101074.50;1684290;83;21442;-87
2022/08/29 03:30:48;;;;;;;8.78;4.30;;;;;;;19.44;75.08;101074.04;1688685;84;21536;-87
2022/08/29 03:33:14;;;;;;;8.28;4.55;;;;;;;19.45;75.02;101079.83;1677500;84;21764;-87
2022/08/29 03:35:41;;;;;;;12.35;4.80;;;;;;;19.46;74.98;101072.70;1688091;84;20957;-87
2022/08/29 03:38:08;;;;;;;11.65;4.67;;;;;;;19.47;75.00;101075.38;1687036;83;21027;-87
2022/08/29 03:40:35;;;;;;;8.35;4.37;;;;;;;19.51;74.99;101072.23;1642436;86;20967;-87
2022/08/29 03:43:02;;;;;;;9.85;4.20;;;;;;;19.53;74.95;101068.64;1641123;85;21517;-87
2022/08/29 03:45:29;;;;;;;8.20;4.62;;;;;;;19.55;74.91;101077.53;1638034;87;21695;-86
2022/08/29 03:47:56;;;;;;;10.90;3.85;;;;;;;19.56;74.89;101077.11;1645362;86;20998;-87
2022/08/29 03:50:23;;;;;;;9.70;4.42;;;;;;;19.57;74.88;101078.86;1649339;87;21030;-87
2022/08/29 03:52:50;;;;;;;11.22;4.20;;;;;;;19.59;74.87;101077.94;1647820;87;21033;-87
2022/08/29 03:55:19;;;;;;;10.53;4.50;;;;;;;19.59;74.79;101079.73;1647361;87;21679;-87
2022/08/29 03:57:45;;;;;;;12.13;4.28;;;;;;;19.61;74.79;101080.61;1666880;85;21725;-87
2022/08/29 04:00:15;;;;;;;9.95;4.10;;;;;;;19.62;74.75;101085.94;1666268;85;21018;-88
2022/08/29 04:02:44;;;;;;;8.20;4.08;;;;;;;19.63;74.70;101080.14;1651169;86;21026;-87
2022/08/29 04:05:11;;;;;;;9.70;4.40;;;;;;;19.61;74.59;101084.19;1642335;85;21019;-86
2022/08/29 04:07:52;;;;;;;11.33;4.12;;;;;;;19.61;74.58;101090.86;1688547;83;21407;-86
2022/08/29 04:10:36;;;;;;;9.80;4.45;;;;;;;19.61;74.53;101081.94;1693819;83;21227;-88
2022/08/29 04:13:02;;;;;;;9.90;4.62;;;;;;;19.61;74.47;101088.19;1694502;83;21007;-87
2022/08/29 04:15:31;;;;;;;10.65;4.15;;;;;;;19.60;74.40;101085.06;1685323;84;21052;-86
2022/08/29 04:17:59;;;;;;;8.68;4.40;;;;;;;19.60;74.29;101079.73;1688567;84;21022;-88
2022/08/29 04:20:30;;;;;;;14.40;5.40;;;;;;;19.58;74.26;101082.86;1693225;84;21035;-86
2022/08/29 04:22:58;;;;;;;9.53;3.98;;;;;;;19.58;74.26;101077.98;1690635;84;21743;-87
2022/08/29 04:25:26;;;;;;;7.87;3.98;;;;;;;19.59;74.21;101081.06;1671281;84;21039;-87
2022/08/29 04:27:53;;;;;;;9.65;4.20;;;;;;;19.59;74.15;101077.06;1693381;84;21033;-86
2022/08/29 04:30:22;;;;;;;10.55;4.20;;;;;;;19.56;74.14;101071.77;1682091;82;21055;-87
2022/08/29 04:32:49;;;;;;;7.58;4.17;;;;;;;19.57;74.14;101072.19;1687787;83;21040;-86
2022/08/29 04:35:16;;;;;;;11.60;4.50;;;;;;;19.55;74.07;101069.52;1689360;83;21747;-86
2022/08/29 04:37:43;;;;;;;8.73;4.10;;;;;;;19.57;74.10;101073.52;1694892;83;21011;-88
2022/08/29 04:40:12;;;;;;;10.63;4.47;;;;;;;19.58;74.16;101074.84;1700802;83;21007;-91
2022/08/29 04:42:39;;;;;;;13.75;5.40;;;;;;;19.59;74.05;101079.27;1694711;84;21331;-89
2022/08/29 04:45:10;;;;;;;14.10;4.40;;;;;;;19.57;74.12;101081.07;1691284;84;21007;-87
2022/08/29 04:47:38;;;;;;;8.28;3.92;;;;;;;19.57;74.08;101074.39;1689630;84;21748;-88
2022/08/29 04:50:05;;;;;;;9.98;4.45;;;;;;;19.57;74.11;101081.07;1695162;83;21003;-89
2022/08/29 04:52:32;;;;;;;8.70;4.17;;;;;;;19.58;74.14;101078.86;1666330;84;21031;-87
2022/08/29 04:55:03;;;;;;;7.15;4.30;;;;;;;19.57;74.21;101067.72;1691410;84;21007;-88
2022/08/29 04:57:30;;;;;;;9.35;4.33;;;;;;;19.61;74.21;101075.27;1691079;84;21502;-87
2022/08/29 04:59:57;;;;;;;12.50;4.80;;;;;;;19.62;74.23;101075.72;1690689;84;22430;-90
2022/08/29 05:02:25;;;;;;;7.40;4.30;;;;;;;19.67;74.28;101084.59;1685468;85;21467;-91
2022/08/29 05:04:55;;;;;;;10.55;4.58;;;;;;;19.69;74.19;101080.55;1685948;85;20979;-90
2022/08/29 05:07:24;;;;;;;10.82;3.95;;;;;;;19.72;74.23;101080.53;1685752;85;20979;-89
2022/08/29 05:09:57;;;;;;;8.80;4.30;;;;;;;19.75;74.22;101078.77;1685132;85;20942;-91
2022/08/29 05:12:26;;;;;;;;;;;;;;;19.80;74.25;101078.72;1657070;86;21834;-92
2022/08/29 05:14:55;;;;;;;9.75;4.12;;;;;;;19.88;74.20;101080.89;1682745;84;20663;-91
2022/08/29 05:17:22;;;;;;;12.28;4.30;;;;;;;19.89;74.13;101083.98;1678007;84;21486;-92
2022/08/29 05:19:49;;;;;;;11.50;5.10;;;;;;;19.95;73.97;101083.95;1665113;83;21501;-92
2022/08/29 05:22:16;;;;;;;13.22;4.55;;;;;;;19.95;73.97;101083.95;1686464;83;20987;-90
2022/08/29 05:24:43;;;;;;;10.03;5.33;;;;;;;19.97;73.97;101087.50;1691415;83;21724;-91
2022/08/29 05:27:22;;;;;;;7.30;3.77;;;;;;;19.98;73.96;101087.92;1679279;85;21472;-91
2022/08/29 05:29:53;;;;;;;9.78;4.30;;;;;;;20.04;74.03;101099.47;1681982;83;20995;-89
2022/08/29 05:32:20;;;;;;;6.17;3.92;;;;;;;19.90;73.98;101071.53;1681930;83;21524;-89
2022/08/29 05:34:48;;;;;;;8.70;4.17;;;;;;;19.89;73.76;101073.30;1683176;84;21004;-89
2022/08/29 05:37:18;;;;;;;6.25;3.52;;;;;;;19.89;73.76;101073.30;1682391;84;22527;-89
2022/08/29 05:39:45;;;;;;;8.10;3.58;;;;;;;20.03;73.90;101093.66;1680838;84;21469;-87
2022/08/29 05:42:11;;;;;;;8.05;4.42;;;;;;;20.07;73.85;101102.13;1704955;83;20987;-88
2022/08/29 05:44:38;;;;;;;9.35;3.45;;;;;;;20.07;73.85;101102.13;1692708;83;21007;-86
2022/08/29 05:47:09;;;;;;;7.75;3.42;;;;;;;20.06;73.74;101089.19;1666447;85;21060;-88
2022/08/29 05:49:37;;;;;;;8.90;3.52;;;;;;;20.06;73.74;101089.19;1656784;84;23144;-88
2022/08/29 05:52:04;;;;;;;7.30;3.20;;;;;;;20.20;73.64;101110.46;1684003;85;21450;-88
2022/08/29 05:54:33;;;;;;;9.50;3.70;;;;;;;20.13;73.60;101094.04;1677772;83;21008;-88
2022/08/29 05:57:00;;;;;;;6.53;3.77;;;;;;;20.19;73.61;101101.53;1673017;85;21000;-87
2022/08/29 05:59:29;;;;;;;8.60;3.70;;;;;;;20.23;73.54;101106.41;1674090;84;21023;-87
2022/08/29 06:01:57;;;;;;;7.75;3.20;;;;;;;20.29;73.47;101116.16;1674697;83;21842;-86
2022/08/29 06:04:24;;;;;;;6.72;3.30;;;;;;;20.21;73.35;101113.55;1683491;83;21008;-86
2022/08/29 06:06:50;;;;;;;9.43;3.83;;;;;;;20.08;73.23;101094.52;1675947;83;21591;-86
2022/08/29 06:09:17;;;;;;;10.03;4.30;;;;;;;20.08;73.23;101094.52;1675987;83;21027;-85
2022/08/29 06:11:47;;;;;;;10.28;4.22;;;;;;;20.15;73.43;101115.83;1679107;84;21051;-86
2022/08/29 06:14:14;;;;;;;8.68;6.17;;;;;;;20.15;73.43;101115.83;1681769;85;21757;-88
2022/08/29 06:16:41;;;;;;;8.80;4.17;;;;;;;20.16;73.28;101120.29;1681499;84;21070;-88
2022/08/29 06:19:08;;;;;;;12.60;3.45;;;;;;;20.16;73.31;101110.06;1674326;83;21047;-87
2022/08/29 06:21:36;;;;;;;9.33;4.40;;;;;;;20.08;73.36;101096.73;1642085;86;21012;-89
2022/08/29 06:24:05;;;;;;;6.70;3.37;;;;;;;20.25;73.39;101119.77;1641017;85;20991;-86
2022/08/29 06:26:32;;;;;;;7.17;3.77;;;;;;;20.33;73.54;101120.59;1650617;85;21749;-87
2022/08/29 06:29:06;;;;;;;5.85;3.37;;;;;;;20.44;73.45;101119.13;1644693;85;21059;-87
2022/08/29 06:31:33;;;;;;;4.90;3.22;;;;;;;20.57;73.42;101128.80;1629582;86;21053;-86
2022/08/29 06:34:22;;;;;;;8.35;3.80;;;;;;;20.65;73.18;101126.11;1642955;86;21422;-87
2022/08/29 06:36:51;;;;;;;7.55;4.03;;;;;;;20.73;73.13;101128.23;1625075;87;21007;-89
2022/08/29 06:39:18;;;;;;;9.60;4.35;;;;;;;20.88;73.04;101122.70;1632940;86;21773;-88
2022/08/29 06:41:45;;;;;;;6.15;2.90;;;;;;;20.97;72.74;101119.92;1646423;86;21580;-90
2022/08/29 06:44:14;;;;;;;6.58;3.22;;;;;;;20.98;72.36;101106.08;1650208;85;21666;-89
2022/08/29 06:46:44;;;;;;;7.67;3.02;;;;;;;20.98;72.36;101106.08;1624229;86;21431;-89
2022/08/29 06:49:13;;;;;;;5.10;2.55;;;;;;;21.24;72.34;101123.15;1619788;88;20990;-93
2022/08/29 06:51:43;;;;;;;6.83;2.90;;;;;;;21.34;72.10;101122.56;1621189;85;23089;-90
2022/08/29 06:54:11;;;;;;;4.25;2.30;;;;;;;21.43;71.93;101128.27;1613502;85;21007;-87
2022/08/29 06:56:38;;;;;;;10.25;2.83;;;;;;;21.45;71.53;101125.14;1613797;86;21019;-86
2022/08/29 06:59:05;;;;;;;6.10;3.25;;;;;;;21.50;71.40;101125.97;1619500;85;20963;-86
2022/08/29 07:01:33;;;;;;;7.42;2.40;;;;;;;21.49;71.27;101129.11;1647892;85;21062;-87
2022/08/29 07:04:01;;;;;;;8.70;2.67;;;;;;;21.53;70.94;101125.94;1664404;84;22481;-86
2022/08/29 07:06:29;;;;;;;5.00;2.50;;;;;;;21.51;70.86;101132.65;1662263;83;21014;-86
2022/08/29 07:08:57;;;;;;;5.03;2.67;;;;;;;21.57;70.79;101133.02;1646362;86;21144;-85
2022/08/29 07:11:26;;;;;;;3.62;2.02;;;;;;;21.60;70.63;101135.63;1635528;85;21010;-84
2022/08/29 07:13:56;;;;;;;5.22;2.40;;;;;;;21.64;70.52;101136.05;1672991;84;21548;-85
2022/08/29 07:16:23;;;;;;;5.87;2.60;;;;;;;21.69;70.39;101138.64;1634929;84;21744;-88
2022/08/29 07:18:50;;;;;;;3.92;2.27;;;;;;;21.80;70.38;101144.72;1622465;83;21026;-92
2022/08/29 07:21:21;;;;;;;4.35;2.75;;;;;;;21.99;70.30;101144.44;1666552;83;21439;-88
2022/08/29 07:23:50;;;;;;;6.15;2.40;;;;;;;22.22;70.18;101142.24;1663984;83;21054;-89
2022/08/29 07:26:27;;;;;;;4.87;2.47;;;;;;;22.40;69.79;101148.26;1660741;84;21077;-90
2022/08/29 07:29:01;;;;;;;5.97;1.95;;;;;;;22.58;69.38;101139.88;1657109;84;22621;-88
2022/08/29 07:31:30;;;;;;;5.75;1.72;;;;;;;22.68;68.92;101145.95;1655169;85;21030;-86
2022/08/29 07:33:57;;;;;;;4.12;1.87;;;;;;;22.78;68.42;101146.19;1651708;85;21006;-86
2022/08/29 07:36:38;;;;;;;3.98;1.92;;;;;;;22.91;68.15;101145.03;1661757;84;20972;-89
2022/08/29 07:39:17;;;;;;;4.10;1.60;;;;;;;23.00;67.89;101145.78;1685504;83;21000;-87
2022/08/29 07:41:46;;;;;;;1.82;1.50;;;;;;;22.98;67.24;101145.80;1663384;84;21806;-88
2022/08/29 07:44:16;;;;;;;3.72;1.95;;;;;;;22.95;66.80;101151.22;1659619;84;21449;-90
2022/08/29 07:46:43;;;;;;;4.80;1.90;;;;;;;22.96;66.86;101149.45;1659031;86;21437;-89
2022/08/29 07:49:11;;;;;;;2.42;1.50;;;;;;;23.04;66.85;101143.48;1662909;84;21504;-89
2022/08/29 07:51:40;;;;;;;3.62;1.60;;;;;;;23.06;66.52;101147.02;1658702;86;21038;-87
2022/08/29 07:54:07;;;;;;;2.95;1.60;;;;;;;23.12;66.41;101146.02;1663219;84;22546;-89
2022/08/29 07:56:41;;;;;;;7.08;1.90;;;;;;;23.15;66.11;101145.49;1661440;86;21018;-88
2022/08/29 07:59:10;;;;;;;4.22;1.60;;;;;;;23.23;66.16;101138.61;1661518;86;21007;-89
2022/08/29 08:01:38;;;;;;;4.87;1.82;;;;;;;23.40;66.16;101139.13;1658923;85;21035;-87
2022/08/29 08:04:05;;;;;;;3.85;1.42;;;;;;;23.61;65.94;101146.28;1649287;85;21059;-87
2022/08/29 08:06:35;;;;;;;7.08;5.00;;;;;;;23.81;65.23;101142.70;1692204;83;21773;-87
2022/08/29 08:09:05;;;;;;;8.35;5.50;;;;;;;23.80;64.57;101144.98;1677943;84;21081;-89
2022/08/29 08:11:32;;;;;;;4.15;2.40;;;;;;;23.61;63.96;101146.28;1678921;84;20980;-89
2022/08/29 08:13:59;;;;;;;2.87;1.50;;;;;;;23.46;64.15;101144.81;1679590;84;20996;-87
2022/08/29 08:16:26;;;;;;;5.45;2.12;;;;;;;23.36;64.16;101147.30;1671825;83;21014;-88
2022/08/29 08:18:53;;;;;;;5.33;2.27;;;;;;;23.34;64.09;101153.16;1682936;84;21710;-87
2022/08/29 08:21:22;;;;;;;4.60;3.17;;;;;;;23.27;63.79;101147.94;1675242;85;44446;-88
2022/08/29 08:24:02;;;;;;;3.92;2.20;;;;;;;23.19;63.68;101152.56;1681428;85;21015;-92
2022/08/29 08:26:29;;;;;;;4.85;1.52;;;;;;;23.19;63.59;101149.88;1651145;86;21106;-86
2022/08/29 08:28:56;;;;;;;2.75;2.00;;;;;;;23.14;63.45;101149.08;1683298;84;21090;-86
2022/08/29 08:31:25;;;;;;;4.85;1.70;;;;;;;23.16;63.59;101157.11;1678017;83;21680;-85
2022/08/29 08:33:51;;;;;;;6.15;1.50;;;;;;;23.22;63.42;101149.83;1681837;83;20986;-86
2022/08/29 08:36:27;;;;;;;5.78;1.60;;;;;;;23.28;63.27;101159.09;1684446;84;20997;-86
2022/08/29 08:38:54;;;;;;;2.65;1.30;;;;;;;23.26;63.23;101158.70;1677125;83;21251;-85
2022/08/29 08:41:49;;;;;;;4.87;2.00;;;;;;;23.32;63.22;101157.22;1676926;83;21513;-86
2022/08/29 08:44:38;;;;;;;7.20;1.50;;;;;;;23.36;62.74;101156.70;1674452;83;21009;-87
2022/08/29 08:47:15;;;;;;;3.67;1.82;;;;;;;23.36;62.29;101154.89;1641765;85;21601;-87
2022/08/29 08:49:46;;;;;;;3.85;1.82;;;;;;;23.44;62.33;101158.31;1674002;83;21540;-87
2022/08/29 08:52:19;;;;;;;2.62;1.60;;;;;;;23.58;62.11;101162.49;1666173;84;21215;-87
2022/08/29 08:54:57;;;;;;;2.05;1.85;;;;;;;23.63;61.78;101156.53;1665908;83;21427;-88
2022/08/29 08:57:28;;;;;;;3.45;1.32;;;;;;;23.62;61.80;101154.78;1675931;84;21607;-87
2022/08/29 09:00:05;;;;;;;8.50;3.15;;;;;;;23.71;61.56;101159.95;1681631;83;20976;-87
2022/08/29 09:02:50;;;;;;;3.95;1.25;;;;;;;23.81;61.65;101157.95;1682778;83;21007;-88
2022/08/29 09:05:45;;;;;;;3.35;2.12;;;;;;;23.99;61.51;101158.87;1623867;86;21078;-84
2022/08/29 09:08:26;;;;;;;3.25;2.87;;;;;;;24.01;60.47;101149.42;1598956;86;20999;-85
2022/08/29 09:11:26;;;;;;;3.10;2.35;;;;;;;23.80;59.90;101153.05;1614791;87;21043;-84
2022/08/29 09:14:32;;;;;;;2.12;1.60;;;;;;;23.60;60.27;101155.28;1658520;84;21018;-85
2022/08/29 09:17:43;;;;;;;1.72;1.25;;;;;;;23.58;60.29;101159.81;1660466;85;21055;-85
2022/08/29 09:19:56;;;;;;;;;;;;;;;;;;;;;
2022/08/29 09:22:26;;;;;;;3.95;1.80;;;;;;;23.75;60.03;101152.23;1653684;85;21082;-84
2022/08/29 09:24:58;;;;;;;2.52;1.90;;;;;;;23.76;59.69;101155.36;1659982;85;21810;-89
2022/08/29 09:27:29;;;;;;;5.42;1.60;;;;;;;23.79;59.41;101153.95;1662184;84;21588;-86
2022/08/29 09:30:16;;;;;;;1.77;1.30;;;;;;;23.84;59.30;101145.33;1678696;84;20968;-88
2022/08/29 09:33:07;;;;;;;2.87;1.40;;;;;;;23.96;59.50;101148.64;1640471;86;21046;-87
2022/08/29 09:35:44;;;;;;;2.20;1.37;;;;;;;24.03;59.11;101151.14;1646719;85;21024;-86
2022/08/29 09:38:22;;;;;;;2.87;1.45;;;;;;;24.12;59.07;101155.86;1650111;85;21821;-86
2022/08/29 09:40:57;;;;;;;6.47;1.65;;;;;;;24.25;59.19;101158.22;1653260;85;21011;-86
2022/08/29 09:43:41;;;;;;;3.62;1.45;;;;;;;24.41;59.01;101161.39;1655471;84;21059;-86
2022/08/29 09:46:37;;;;;;;3.35;1.52;;;;;;;24.56;58.61;101158.80;1650350;86;21046;-87
2022/08/29 09:49:14;;;;;;;2.83;1.42;;;;;;;24.68;58.44;101154.00;1654925;85;21019;-85
2022/08/29 09:51:47;;;;;;;3.47;2.60;;;;;;;24.78;58.14;101165.83;1673237;85;22722;-86
2022/08/29 09:54:27;;;;;;;2.40;1.75;;;;;;;24.94;57.97;101158.67;1678160;85;20937;-89
2022/08/29 09:57:01;;;;;;;3.00;2.08;;;;;;;25.08;57.52;101156.95;1670776;85;20961;-84
2022/08/29 09:59:38;;;;;;;5.75;3.12;;;;;;;25.20;57.11;101157.92;1693590;83;21059;-84
2022/08/29 10:02:26;;;;;;;2.30;1.70;;;;;;;25.26;56.96;101164.50;1662752;84;21086;-85
2022/08/29 10:05:06;;;;;;;3.52;1.67;;;;;;;25.32;56.86;101156.25;1611652;86;21842;-84
2022/08/29 10:07:50;;;;;;;5.87;1.70;;;;;;;25.43;56.54;101153.69;1623686;87;21094;-85
2022/08/29 10:10:22;;;;;;;2.77;1.65;;;;;;;25.45;56.18;101157.21;1639164;87;21679;-84
2022/08/29 10:13:11;;;;;;;4.70;1.65;;;;;;;25.45;56.20;101151.82;1647160;86;21632;-86
2022/08/29 10:15:49;;;;;;;1.82;1.45;;;;;;;25.49;56.11;101158.44;1642676;86;21044;-86
2022/08/29 10:18:43;;;;;;;2.00;1.42;;;;;;;25.52;55.79;101155.63;1645144;87;21912;-86
2022/08/29 10:21:52;;;;;;;3.55;3.10;;;;;;;25.47;55.64;101146.82;1616911;87;20993;-87
2022/08/29 10:24:40;;;;;;;2.45;1.70;;;;;;;25.34;55.11;101154.39;1617047;87;21027;-88
2022/08/29 10:27:38;;;;;;;4.47;2.95;;;;;;;25.25;55.21;101157.36;1614775;87;21024;-85
2022/08/29 10:30:32;;;;;;;2.70;2.20;;;;;;;25.24;55.15;101151.53;1603710;89;21516;-85
2022/08/29 10:33:20;;;;;;;3.17;2.40;;;;;;;25.19;54.99;101158.86;1600556;89;21782;-85
2022/08/29 10:36:01;;;;;;;1.82;1.32;;;;;;;25.26;54.91;101151.02;1601870;88;21072;-85
2022/08/29 10:39:09;;;;;;;1.85;1.57;;;;;;;25.48;55.01;101151.73;1603558;89;21034;-85
2022/08/29 10:41:56;;;;;;;4.17;1.60;;;;;;;25.61;54.42;101151.30;1651968;86;21489;-85
2022/08/29 10:44:50;;;;;;;4.58;3.65;;;;;;;25.59;54.00;101154.51;1640359;86;21030;-85
2022/08/29 10:48:13;;;;;;;4.03;3.30;;;;;;;25.51;53.55;101152.53;1660396;84;22688;-86
2022/08/29 10:51:16;;;;;;;10.00;4.80;;;;;;;25.25;53.22;101157.36;1662488;84;20995;-87
2022/08/29 10:53:55;;;;;;;4.97;3.27;;;;;;;24.92;53.45;101153.31;1637981;84;21106;-87
2022/08/29 10:56:41;;;;;;;4.42;2.35;;;;;;;24.79;54.19;101161.32;1648825;84;21011;-87
2022/08/29 10:59:27;;;;;;;3.05;2.37;;;;;;;24.85;54.27;101166.53;1633004;86;21039;-86
2022/08/29 11:02:08;;;;;;;5.90;3.67;;;;;;;24.94;54.04;101157.32;1670380;84;22450;-85
2022/08/29 11:04:46;;;;;;;3.65;2.15;;;;;;;25.08;53.69;101158.30;1649467;85;21024;-88
2022/08/29 11:07:24;;;;;;;4.53;2.20;;;;;;;25.26;53.68;101163.63;1662249;85;21053;-87
2022/08/29 11:09:55;;;;;;;4.15;1.60;;;;;;;25.54;53.43;101159.16;1648202;85;21055;-85
2022/08/29 11:12:48;;;;;;;2.45;1.65;;;;;;;25.89;53.33;101154.95;1630283;84;21048;-84
2022/08/29 11:15:23;;;;;;;4.10;1.72;;;;;;;26.16;53.03;101138.34;1646295;85;21874;-87
2022/08/29 11:17:55;;;;;;;4.70;2.00;;;;;;;26.44;52.58;101157.64;1653799;85;21087;-86
2022/08/29 11:20:28;;;;;;;7.33;2.20;;;;;;;26.60;52.33;101156.20;1654600;85;21005;-89
2022/08/29 11:23:18;;;;;;;3.22;1.72;;;;;;;26.73;51.76;101156.18;1645730;86;21007;-87
2022/08/29 11:25:47;;;;;;;3.67;1.87;;;;;;;26.85;51.79;101160.72;1665175;85;21023;-89
2022/08/29 11:28:41;;;;;;;5.00;2.00;;;;;;;26.73;50.61;101170.16;1650670;85;21616;-87
2022/08/29 11:31:30;;;;;;;4.40;1.70;;;;;;;26.35;50.30;101169.63;1655905;85;20988;-87
2022/08/29 11:34:22;;;;;;;3.52;2.08;;;;;;;25.86;50.61;101174.79;1649400;85;21498;-87
2022/08/29 11:37:20;;;;;;;2.90;1.62;;;;;;;25.41;50.96;101179.33;1659787;85;21047;-88
2022/08/29 11:40:25;;;;;;;3.77;1.52;;;;;;;25.11;51.40;101179.73;1617350;87;21051;-86
2022/08/29 11:42:52;;;;;;;4.17;1.67;;;;;;;25.01;51.89;101179.11;1603043;88;21842;-88
2022/08/29 11:45:31;;;;;;;3.75;1.82;;;;;;;25.00;51.78;101176.89;1636667;87;21359;-87
2022/08/29 11:48:02;;;;;;;2.17;1.52;;;;;;;24.80;51.64;101175.22;1615068;86;21059;-86
2022/08/29 11:50:34;;;;;;;5.75;1.87;;;;;;;24.67;51.99;101174.66;1622043;86;21083;-87
2022/08/29 11:53:13;;;;;;;2.63;2.03;;;;;;;24.62;52.38;101174.77;1621473;87;21081;-86